Time;durP1;ratioP1;P1;durP2;ratioP2;P2;SDS_P1;SDS_P2;PMS_P1;PMS_P2;Temp;Humidity;BMP_temperature;BMP_pressure;BME280_temperature;BME280_humidity;BME280_pressure;Samples;Min_cycle;Max_cycle;Signal;HPM_P1;HPM_P2
2022/01/19 00:01:49;;;;;;;;;;;10.80;54.60;;;;;;5081840;28;19975;-69
2022/01/19 00:04:15;;;;;;;;;;;10.80;54.70;;;;;;5081877;28;20104;-70
2022/01/19 00:06:40;;;;;;;;;;;10.80;54.60;;;;;;5081766;28;19927;-70
2022/01/19 00:09:06;;;;;;;;;;;10.80;54.60;;;;;;5081522;28;19916;-71
2022/01/19 00:11:31;;;;;;;;;;;10.70;54.70;;;;;;5081719;28;19904;-70
2022/01/19 00:13:57;;;;;;;;;;;10.80;54.80;;;;;;5081653;28;19912;-70
2022/01/19 00:16:23;;;;;;;;;;;10.80;54.70;;;;;;5081681;28;20113;-71
2022/01/19 00:18:48;;;;;;;;;;;10.80;55.30;;;;;;5080217;28;19943;-71
2022/01/19 00:21:14;;;;;;;;;;;10.90;54.80;;;;;;5081538;28;19924;-70
2022/01/19 00:23:40;;;;;;;;;;;10.90;54.80;;;;;;5081460;28;19920;-71
2022/01/19 00:26:05;;;;;;;;;;;10.90;54.60;;;;;;5081296;28;19913;-70
2022/01/19 00:28:31;;;;;;;;;;;10.90;54.40;;;;;;5081464;28;20096;-70
2022/01/19 00:30:56;;;;;;;;;;;10.80;54.40;;;;;;5081254;28;19936;-70
2022/01/19 00:33:23;;;;;;;;;;;10.70;54.60;;;;;;5081330;28;19912;-70
2022/01/19 00:35:50;;;;;;;;;;;10.70;54.80;;;;;;5081192;28;19916;-70
2022/01/19 00:38:16;;;;;;;;;;;10.70;54.90;;;;;;5081211;28;19912;-70
2022/01/19 00:40:41;;;;;;;;;;;10.70;54.90;;;;;;5081130;28;19908;-70
2022/01/19 00:43:07;;;;;;;;;;;10.70;54.80;;;;;;5081070;28;20243;-70
2022/01/19 00:45:33;;;;;;;;;;;10.70;55.00;;;;;;5081058;28;19927;-70
2022/01/19 00:47:59;;;;;;;;;;;10.70;54.80;;;;;;5080909;28;19958;-71
2022/01/19 00:50:26;;;;;;;;;;;10.70;54.80;;;;;;5080970;28;19912;-70
2022/01/19 00:52:52;;;;;;;;;;;10.70;54.70;;;;;;5079656;28;20137;-71
2022/01/19 00:55:19;;;;;;;;;;;10.80;54.70;;;;;;5080863;28;19919;-71
2022/01/19 00:57:45;;;;;;;;;;;10.80;54.70;;;;;;5080834;28;19920;-70
2022/01/19 01:00:12;;;;;;;;;;;10.80;54.70;;;;;;5080783;28;20234;-70
2022/01/19 01:02:38;;;;;;;;;;;10.80;54.50;;;;;;5079796;28;20197;-70
2022/01/19 01:05:04;;;;;;;;;;;10.80;54.50;;;;;;5080682;28;19920;-70
2022/01/19 01:07:33;;;;;;;;;;;10.70;54.60;;;;;;5080456;28;20116;-70
2022/01/19 01:09:59;;;;;;;;;;;10.70;54.60;;;;;;5080394;28;19924;-70
2022/01/19 01:12:32;;;;;;;;;;;10.70;54.80;;;;;;5080513;28;19912;-70
2022/01/19 01:20:26;;;;;;;;;;;10.60;55.00;;;;;;5080388;28;19919;-70
2022/01/19 01:22:51;;;;;;;;;;;10.60;55.00;;;;;;5079942;28;19905;-69
2022/01/19 01:25:17;;;;;;;;;;;10.70;54.90;;;;;;5080294;28;19919;-70
2022/01/19 01:27:43;;;;;;;;;;;10.70;54.80;;;;;;5080203;28;19916;-71
2022/01/19 01:30:09;;;;;;;;;;;10.70;54.70;;;;;;5080216;28;19912;-70
2022/01/19 01:32:34;;;;;;;;;;;10.70;54.70;;;;;;5080097;28;20223;-70
2022/01/19 01:35:00;;;;;;;;;;;10.60;54.70;;;;;;5080051;28;19954;-70
2022/01/19 01:37:26;;;;;;;;;;;10.60;54.70;;;;;;5080061;28;19939;-70
2022/01/19 01:39:52;;;;;;;;;;;10.60;54.80;;;;;;5080096;28;20238;-68
2022/01/19 01:42:18;;;;;;;;;;;10.60;54.90;;;;;;5080089;28;19936;-70
2022/01/19 01:44:47;;;;;;;;;;;10.60;55.00;;;;;;5079998;28;19976;-70
2022/01/19 01:47:15;;;;;;;;;;;10.60;54.90;;;;;;5079863;28;19923;-70
2022/01/19 01:55:11;;;;;;;;;;;10.60;55.00;;;;;;5079871;28;19911;-70
2022/01/19 01:57:37;;;;;;;;;;;10.60;55.00;;;;;;5079899;28;19912;-71
2022/01/19 02:00:08;;;;;;;;;;;10.50;55.10;;;;;;5079872;28;20082;-70
2022/01/19 02:02:33;;;;;;;;;;;10.50;55.00;;;;;;5079828;28;19912;-70
2022/01/19 02:04:59;;;;;;;;;;;10.50;55.00;;;;;;5079756;28;19918;-70
2022/01/19 02:07:34;;;;;;;;;;;10.50;54.90;;;;;;5079704;28;19913;-70
2022/01/19 02:10:03;;;;;;;;;;;10.60;54.90;;;;;;5079765;28;19924;-70
2022/01/19 02:23:36;;;;;;;;;;;10.50;55.10;;;;;;5086357;28;19934;-70
2022/01/19 02:26:07;;;;;;;;;;;10.50;55.00;;;;;;5086278;28;19909;-70
2022/01/19 02:42:04;;;;;;;;;;;10.40;55.00;;;;;;5086197;28;19991;-69
2022/01/19 02:49:45;;;;;;;;;;;10.50;54.90;;;;;;5086316;28;20245;-69
2022/01/19 02:52:10;;;;;;;;;;;10.50;55.00;;;;;;5086175;28;19983;-70
2022/01/19 02:54:36;;;;;;;;;;;10.40;55.10;;;;;;5086057;28;19912;-69
2022/01/19 02:57:03;;;;;;;;;;;10.40;55.10;;;;;;5086057;28;20205;-69
2022/01/19 02:59:59;;;;;;;;;;;10.40;55.20;;;;;;5085942;28;19916;-69
2022/01/19 03:10:36;;;;;;;;;;;10.40;55.20;;;;;;5086017;28;19961;-70
2022/01/19 03:13:02;;;;;;;;;;;10.40;55.30;;;;;;5085996;28;19913;-70
2022/01/19 03:15:28;;;;;;;;;;;10.40;55.20;;;;;;5085965;28;20208;-70
2022/01/19 03:17:57;;;;;;;;;;;10.40;55.20;;;;;;5085948;28;19919;-69
2022/01/19 03:20:23;;;;;;;;;;;10.40;55.10;;;;;;5085928;28;19979;-69
2022/01/19 03:23:00;;;;;;;;;;;10.40;55.10;;;;;;5085883;28;19919;-69
2022/01/19 03:25:25;;;;;;;;;;;10.40;55.10;;;;;;5083122;28;19994;-69
2022/01/19 03:27:51;;;;;;;;;;;10.40;55.10;;;;;;5081259;28;19913;-70
2022/01/19 03:30:18;;;;;;;;;;;10.40;55.10;;;;;;5082620;28;19905;-70
2022/01/19 03:32:43;;;;;;;;;;;10.40;55.20;;;;;;5082517;28;19913;-70
2022/01/19 03:35:10;;;;;;;;;;;10.30;55.20;;;;;;5082464;28;19958;-69
2022/01/19 03:37:36;;;;;;;;;;;10.40;55.90;;;;;;5082403;28;19912;-70
2022/01/19 03:40:03;;;;;;;;;;;10.40;55.30;;;;;;5082453;28;20090;-70
2022/01/19 03:42:28;;;;;;;;;;;10.30;55.30;;;;;;5082442;28;19917;-70
2022/01/19 03:44:54;;;;;;;;;;;10.30;55.30;;;;;;5082329;28;20266;-70
2022/01/19 03:47:19;;;;;;;;;;;10.40;55.30;;;;;;5082199;28;19923;-70
2022/01/19 03:49:45;;;;;;;;;;;10.40;55.40;;;;;;5082260;28;20220;-70
2022/01/19 03:52:11;;;;;;;;;;;10.40;55.30;;;;;;5082264;28;19913;-70
2022/01/19 03:54:41;;;;;;;;;;;10.30;55.20;;;;;;5082130;28;20124;-70
2022/01/19 03:57:06;;;;;;;;;;;10.40;55.80;;;;;;5082121;28;19913;-70
2022/01/19 03:59:32;;;;;;;;;;;10.40;55.20;;;;;;5082186;28;19924;-71
2022/01/19 04:01:58;;;;;;;;;;;10.30;55.20;;;;;;5082037;28;19987;-70
2022/01/19 04:06:58;;;;;;;;;;;10.40;55.30;;;;;;5081857;28;19978;-69
2022/01/19 04:09:24;;;;;;;;;;;10.30;55.20;;;;;;5081867;28;19924;-70
2022/01/19 04:11:50;;;;;;;;;;;10.30;55.20;;;;;;5081828;28;19919;-69
2022/01/19 04:14:21;;;;;;;;;;;10.30;55.80;;;;;;5081828;28;19912;-69
2022/01/19 04:16:48;;;;;;;;;;;10.30;55.30;;;;;;5081770;28;20154;-71
2022/01/19 04:19:23;;;;;;;;;;;10.30;55.40;;;;;;5081764;28;19987;-69
2022/01/19 04:21:50;;;;;;;;;;;10.30;55.50;;;;;;5081643;28;19913;-71
2022/01/19 04:24:16;;;;;;;;;;;10.30;55.50;;;;;;5080318;28;20200;-70
2022/01/19 04:26:42;;;;;;;;;;;10.20;55.40;;;;;;5080223;28;19950;-70
2022/01/19 04:29:07;;;;;;;;;;;10.30;55.30;;;;;;5081547;28;19912;-70
2022/01/19 04:31:33;;;;;;;;;;;10.30;55.30;;;;;;5080219;28;20152;-70
2022/01/19 04:34:03;;;;;;;;;;;10.30;55.20;;;;;;5081382;28;19913;-70
2022/01/19 04:36:36;;;;;;;;;;;10.30;55.30;;;;;;5081207;28;19917;-70
2022/01/19 05:03:13;;;;;;;;;;;10.20;56.10;;;;;;5080892;28;20234;-71
2022/01/19 05:06:15;;;;;;;;;;;10.20;55.50;;;;;;5080827;28;19975;-70
2022/01/19 05:13:55;;;;;;;;;;;10.20;55.40;;;;;;5080691;28;19934;-69
2022/01/19 05:16:21;;;;;;;;;;;10.20;55.40;;;;;;5080672;28;20389;-69
2022/01/19 05:18:47;;;;;;;;;;;10.20;55.40;;;;;;5080513;28;20210;-70
2022/01/19 05:21:13;;;;;;;;;;;10.20;55.40;;;;;;5080582;28;19916;-70
2022/01/19 05:23:39;;;;;;;;;;;10.20;55.50;;;;;;5080417;28;20026;-70
2022/01/19 05:26:04;;;;;;;;;;;10.20;55.50;;;;;;5080462;28;19975;-69
2022/01/19 05:28:30;;;;;;;;;;;10.20;55.50;;;;;;5080350;28;19912;-70
2022/01/19 05:30:55;;;;;;;;;;;10.20;55.40;;;;;;5080347;28;19912;-70
2022/01/19 05:33:21;;;;;;;;;;;10.20;55.40;;;;;;5080332;28;20114;-70
2022/01/19 05:35:46;;;;;;;;;;;10.20;55.40;;;;;;5080204;28;19912;-70
2022/01/19 05:38:12;;;;;;;;;;;10.20;55.50;;;;;;5080309;28;19912;-70
2022/01/19 05:40:38;;;;;;;;;;;10.10;55.50;;;;;;5080267;28;19941;-70
2022/01/19 05:43:03;;;;;;;;;;;10.20;55.60;;;;;;5080157;28;20199;-68
2022/01/19 05:45:29;;;;;;;;;;;10.10;55.40;;;;;;5080102;28;19939;-70
2022/01/19 05:47:55;;;;;;;;;;;10.10;55.50;;;;;;5079497;28;19912;-70
2022/01/19 05:50:21;;;;;;;;;;;10.10;55.50;;;;;;5080091;28;20203;-71
2022/01/19 05:52:46;;;;;;;;;;;10.10;55.50;;;;;;5080054;28;20214;-70
2022/01/19 05:55:12;;;;;;;;;;;10.20;55.50;;;;;;5080073;28;19975;-69
2022/01/19 05:57:39;;;;;;;;;;;10.10;55.50;;;;;;5079989;28;19991;-70
2022/01/19 06:00:05;;;;;;;;;;;10.10;55.50;;;;;;5078764;28;20195;-69
2022/01/19 06:02:31;;;;;;;;;;;10.10;55.50;;;;;;5079814;28;19913;-68
2022/01/19 06:04:56;;;;;;;;;;;10.10;55.60;;;;;;5079952;28;19912;-69
2022/01/19 06:07:28;;;;;;;;;;;10.10;55.60;;;;;;5079953;28;19916;-70
2022/01/19 06:10:03;;;;;;;;;;;10.10;55.60;;;;;;5079786;28;20176;-69
2022/01/19 06:12:29;;;;;;;;;;;10.10;55.50;;;;;;5079967;28;19970;-69
2022/01/19 06:14:55;;;;;;;;;;;10.10;55.50;;;;;;5079856;28;19947;-70
2022/01/19 06:17:20;;;;;;;;;;;10.10;55.50;;;;;;5079829;28;19913;-68
2022/01/19 06:19:48;;;;;;;;;;;10.10;55.50;;;;;;5079859;28;20250;-71
2022/01/19 06:22:14;;;;;;;;;;;10.10;55.50;;;;;;5079790;28;19912;-70
2022/01/19 06:24:40;;;;;;;;;;;10.10;55.50;;;;;;5079792;28;19936;-70
2022/01/19 06:27:06;;;;;;;;;;;10.10;55.60;;;;;;5079652;28;20258;-70
2022/01/19 06:29:31;;;;;;;;;;;10.10;55.60;;;;;;5079729;28;19979;-70
2022/01/19 06:31:57;;;;;;;;;;;10.10;55.50;;;;;;5079653;28;19912;-70
2022/01/19 06:34:22;;;;;;;;;;;10.10;55.60;;;;;;5079716;28;19916;-70
2022/01/19 06:36:51;;;;;;;;;;;10.10;55.60;;;;;;5079587;28;19920;-69
2022/01/19 06:39:17;;;;;;;;;;;10.10;55.60;;;;;;5079628;28;20510;-69
2022/01/19 06:41:42;;;;;;;;;;;10.10;55.60;;;;;;5079574;28;19916;-69
2022/01/19 06:44:08;;;;;;;;;;;10.10;55.60;;;;;;5079555;28;20234;-69
2022/01/19 06:46:34;;;;;;;;;;;10.00;55.70;;;;;;5079381;28;19923;-69
2022/01/19 06:48:59;;;;;;;;;;;10.00;55.60;;;;;;5079574;28;19943;-69
2022/01/19 06:51:25;;;;;;;;;;;10.00;55.60;;;;;;5079530;28;20307;-69
2022/01/19 06:53:52;;;;;;;;;;;10.10;55.60;;;;;;5079466;28;19913;-70
2022/01/19 06:56:18;;;;;;;;;;;10.10;55.50;;;;;;5079523;28;19919;-70
2022/01/19 06:58:43;;;;;;;;;;;10.10;55.50;;;;;;5079508;28;19912;-70
2022/01/19 07:01:09;;;;;;;;;;;10.10;55.50;;;;;;5081490;28;19920;-70
2022/01/19 07:03:35;;;;;;;;;;;10.00;55.50;;;;;;5083162;28;19904;-70
2022/01/19 07:06:01;;;;;;;;;;;10.00;55.50;;;;;;5083228;28;19913;-70
2022/01/19 07:08:27;;;;;;;;;;;10.10;55.60;;;;;;5081560;28;20085;-70
2022/01/19 07:10:52;;;;;;;;;;;10.10;55.50;;;;;;5083119;28;19943;-70
2022/01/19 07:13:18;;;;;;;;;;;10.00;55.50;;;;;;5082978;28;19977;-69
2022/01/19 07:15:44;;;;;;;;;;;10.10;55.50;;;;;;5082894;28;19957;-70
2022/01/19 07:18:09;;;;;;;;;;;10.00;55.50;;;;;;5082815;28;19947;-70
2022/01/19 07:20:35;;;;;;;;;;;10.10;55.50;;;;;;5082864;28;19950;-69
2022/01/19 07:23:01;;;;;;;;;;;10.00;55.60;;;;;;5081465;28;19935;-70
2022/01/19 07:25:27;;;;;;;;;;;10.00;55.60;;;;;;5082693;28;19916;-69
2022/01/19 07:27:53;;;;;;;;;;;10.00;55.60;;;;;;5082668;28;20204;-70
2022/01/19 07:30:19;;;;;;;;;;;10.00;55.50;;;;;;5082621;28;19913;-70
2022/01/19 07:32:48;;;;;;;;;;;10.10;55.50;;;;;;5082745;28;19954;-71
2022/01/19 07:35:14;;;;;;;;;;;10.10;55.50;;;;;;5082564;28;19927;-70
2022/01/19 07:37:40;;;;;;;;;;;10.10;55.40;;;;;;5082589;28;19979;-69
2022/01/19 07:40:06;;;;;;;;;;;10.10;55.40;;;;;;5082519;28;19916;-71
2022/01/19 07:42:32;;;;;;;;;;;10.10;55.40;;;;;;5082522;28;19912;-70
2022/01/19 07:44:58;;;;;;;;;;;10.10;55.40;;;;;;5082435;28;19913;-69
2022/01/19 07:47:24;;;;;;;;;;;10.10;55.40;;;;;;5082305;28;19958;-69
2022/01/19 07:49:49;;;;;;;;;;;10.10;55.40;;;;;;5082324;28;20136;-69
2022/01/19 07:52:15;;;;;;;;;;;10.10;55.40;;;;;;5082276;28;19943;-69
2022/01/19 07:54:40;;;;;;;;;;;10.10;55.40;;;;;;5082196;28;19913;-68
2022/01/19 07:57:06;;;;;;;;;;;10.10;55.40;;;;;;5082180;28;19905;-69
2022/01/19 07:59:32;;;;;;;;;;;10.10;55.30;;;;;;5080904;28;19912;-69
2022/01/19 08:01:58;;;;;;;;;;;10.20;55.30;;;;;;5082103;28;19977;-69
2022/01/19 08:04:24;;;;;;;;;;;10.20;55.20;;;;;;5082160;28;19913;-69
2022/01/19 08:06:54;;;;;;;;;;;10.30;55.10;;;;;;5080686;28;19923;-69
2022/01/19 08:09:20;;;;;;;;;;;10.30;55.00;;;;;;5081881;28;19946;-69
2022/01/19 08:11:49;;;;;;;;;;;10.30;54.90;;;;;;5080938;28;20151;-69
2022/01/19 08:14:15;;;;;;;;;;;10.40;54.90;;;;;;5081930;28;20140;-69
2022/01/19 08:16:41;;;;;;;;;;;10.60;54.50;;;;;;5081839;28;20197;-69
2022/01/19 08:19:07;;;;;;;;;;;10.70;54.20;;;;;;5081748;28;19912;-69
2022/01/19 08:21:32;;;;;;;;;;;10.80;54.10;;;;;;5081807;28;19913;-68
2022/01/19 08:23:58;;;;;;;;;;;10.80;54.10;;;;;;5080425;28;20011;-68
2022/01/19 08:26:24;;;;;;;;;;;10.80;53.90;;;;;;5081600;28;19920;-68
2022/01/19 08:28:49;;;;;;;;;;;10.80;53.70;;;;;;5081745;28;19930;-69
2022/01/19 08:31:15;;;;;;;;;;;10.80;53.70;;;;;;5081565;28;19905;-69
2022/01/19 08:33:41;;;;;;;;;;;10.80;53.80;;;;;;5081600;28;19913;-69
2022/01/19 08:36:06;;;;;;;;;;;10.80;53.90;;;;;;5081454;28;19904;-70
2022/01/19 08:38:33;;;;;;;;;;;10.80;54.00;;;;;;5081574;28;19944;-70
2022/01/19 08:40:58;;;;;;;;;;;10.80;54.00;;;;;;5080132;28;20120;-69
2022/01/19 08:43:24;;;;;;;;;;;10.80;53.90;;;;;;5081390;28;19919;-69
2022/01/19 08:45:50;;;;;;;;;;;10.80;54.00;;;;;;5081268;28;19975;-69
2022/01/19 08:48:16;;;;;;;;;;;10.80;53.90;;;;;;5081197;28;20011;-69
2022/01/19 08:50:45;;;;;;;;;;;10.90;53.90;;;;;;5081270;28;19983;-69
2022/01/19 08:53:11;;;;;;;;;;;10.90;53.70;;;;;;5081183;28;19939;-69
2022/01/19 08:55:37;;;;;;;;;;;10.90;53.70;;;;;;5081090;28;20290;-69
2022/01/19 08:58:03;;;;;;;;;;;11.00;53.60;;;;;;5081109;28;20052;-70
2022/01/19 09:00:29;;;;;;;;;;;11.00;53.70;;;;;;5080975;28;19920;-69
2022/01/19 09:02:54;;;;;;;;;;;11.00;53.60;;;;;;5081029;28;19983;-69
2022/01/19 09:05:20;;;;;;;;;;;11.00;53.60;;;;;;5080970;28;20226;-69
2022/01/19 09:07:46;;;;;;;;;;;11.00;53.50;;;;;;5080599;28;19958;-69
2022/01/19 09:10:12;;;;;;;;;;;11.00;53.60;;;;;;5080813;28;19977;-69
2022/01/19 09:12:38;;;;;;;;;;;11.00;53.40;;;;;;5080746;28;19912;-70
2022/01/19 09:15:05;;;;;;;;;;;11.00;53.50;;;;;;5080781;28;19932;-70
2022/01/19 09:17:30;;;;;;;;;;;10.90;53.70;;;;;;5080675;28;19912;-70
2022/01/19 09:19:56;;;;;;;;;;;10.90;53.80;;;;;;5080623;28;19912;-70
2022/01/19 09:22:21;;;;;;;;;;;10.90;53.90;;;;;;5080273;28;19970;-70
2022/01/19 09:24:47;;;;;;;;;;;10.80;54.00;;;;;;5080104;28;19919;-71
2022/01/19 09:27:15;;;;;;;;;;;10.90;54.00;;;;;;5080434;28;19916;-70
2022/01/19 09:29:42;;;;;;;;;;;10.90;54.10;;;;;;5080519;28;20302;-70
2022/01/19 09:32:12;;;;;;;;;;;10.90;54.10;;;;;;5080439;28;19912;-70
2022/01/19 09:34:47;;;;;;;;;;;10.90;54.10;;;;;;5080301;28;19940;-70
2022/01/19 09:37:13;;;;;;;;;;;11.00;54.10;;;;;;5080465;28;19913;-69
2022/01/19 09:39:39;;;;;;;;;;;11.00;53.90;;;;;;5080375;28;19919;-70
2022/01/19 09:42:05;;;;;;;;;;;11.10;53.70;;;;;;5080341;28;20208;-69
2022/01/19 09:44:31;;;;;;;;;;;11.10;53.50;;;;;;5080305;28;19912;-69
2022/01/19 09:46:57;;;;;;;;;;;11.10;53.60;;;;;;5080206;28;20007;-69
2022/01/19 09:49:23;;;;;;;;;;;11.20;53.70;;;;;;5080312;28;19912;-69
2022/01/19 09:51:49;;;;;;;;;;;11.20;53.50;;;;;;5080152;28;19913;-70
2022/01/19 09:54:20;;;;;;;;;;;11.20;53.50;;;;;;5080150;28;19908;-70
2022/01/19 09:56:46;;;;;;;;;;;11.20;53.50;;;;;;5080156;28;19947;-70
2022/01/19 09:59:14;;;;;;;;;;;11.20;53.50;;;;;;5080084;28;19912;-70
2022/01/19 10:01:50;;;;;;;;;;;11.10;53.60;;;;;;5080074;28;19912;-70
2022/01/19 10:04:17;;;;;;;;;;;11.00;53.90;;;;;;5080080;28;19943;-69
2022/01/19 10:06:43;;;;;;;;;;;11.00;54.00;;;;;;5080023;28;19916;-70
2022/01/19 10:09:09;;;;;;;;;;;11.00;54.00;;;;;;5079791;28;20101;-70
2022/01/19 10:17:06;;;;;;;;;;;11.00;54.20;;;;;;5079959;28;20132;-70
2022/01/19 10:19:33;;;;;;;;;;;11.00;54.10;;;;;;5080290;28;19908;-70
2022/01/19 10:22:00;;;;;;;;;;;11.10;54.20;;;;;;5078654;28;19979;-70
2022/01/19 10:24:32;;;;;;;;;;;11.10;54.00;;;;;;5079843;28;19919;-69
2022/01/19 10:27:17;;;;;;;;;;;11.10;54.70;;;;;;5079733;28;19916;-70
2022/01/19 10:29:42;;;;;;;;;;;11.10;54.20;;;;;;5079921;28;20108;-70
2022/01/19 10:32:09;;;;;;;;;;;11.10;54.20;;;;;;5079812;28;19939;-70
2022/01/19 10:34:35;;;;;;;;;;;11.10;54.10;;;;;;5081014;28;19983;-70
2022/01/19 10:37:02;;;;;;;;;;;11.20;54.10;;;;;;5082518;28;19969;-70
2022/01/19 10:39:39;;;;;;;;;;;11.20;54.10;;;;;;5083686;28;19913;-70
2022/01/19 10:42:13;;;;;;;;;;;11.20;53.90;;;;;;5083720;28;20417;-69
2022/01/19 10:44:40;;;;;;;;;;;11.10;53.90;;;;;;5083574;28;19959;-70
2022/01/19 10:47:05;;;;;;;;;;;11.10;54.10;;;;;;5083498;28;19908;-69
2022/01/19 10:49:47;;;;;;;;;;;11.10;54.30;;;;;;5083537;28;19920;-70
2022/01/19 10:52:30;;;;;;;;;;;11.10;54.50;;;;;;5083532;28;19912;-71
2022/01/19 10:54:59;;;;;;;;;;;11.10;54.50;;;;;;5083362;28;19951;-70
2022/01/19 10:57:26;;;;;;;;;;;11.10;54.30;;;;;;5083415;28;19911;-70
2022/01/19 10:59:53;;;;;;;;;;;11.10;54.20;;;;;;5083347;28;19904;-70
2022/01/19 11:02:19;;;;;;;;;;;11.10;54.20;;;;;;5083232;28;19913;-70
2022/01/19 11:04:45;;;;;;;;;;;11.20;54.20;;;;;;5083183;28;19911;-70
2022/01/19 11:07:12;;;;;;;;;;;11.20;54.30;;;;;;5083166;28;20227;-70
2022/01/19 11:09:45;;;;;;;;;;;11.20;54.40;;;;;;5083006;28;19924;-71
2022/01/19 11:12:15;;;;;;;;;;;11.20;54.30;;;;;;5083134;28;19920;-70
2022/01/19 11:14:40;;;;;;;;;;;11.20;54.20;;;;;;5083059;28;19912;-70
2022/01/19 11:17:07;;;;;;;;;;;11.20;54.40;;;;;;5082949;28;20105;-71
2022/01/19 11:19:36;;;;;;;;;;;11.20;54.30;;;;;;5083013;28;20259;-70
2022/01/19 11:22:20;;;;;;;;;;;11.20;54.30;;;;;;5082896;28;20200;-70
2022/01/19 11:24:46;;;;;;;;;;;11.30;54.40;;;;;;5082820;28;19912;-69
2022/01/19 11:27:12;;;;;;;;;;;11.20;54.30;;;;;;5082775;28;19939;-70
2022/01/19 11:29:39;;;;;;;;;;;11.20;54.10;;;;;;5082734;28;19938;-70
2022/01/19 11:32:18;;;;;;;;;;;11.30;54.30;;;;;;5082737;28;19904;-70
2022/01/19 11:34:50;;;;;;;;;;;11.30;54.30;;;;;;5082647;28;19954;-69
2022/01/19 11:37:30;;;;;;;;;;;11.30;54.10;;;;;;5082561;28;19904;-70
2022/01/19 11:40:08;;;;;;;;;;;11.30;54.10;;;;;;5082656;28;19920;-69
2022/01/19 11:42:34;;;;;;;;;;;11.30;54.20;;;;;;5082583;28;20009;-69
2022/01/19 11:45:00;;;;;;;;;;;11.30;54.20;;;;;;5082553;28;19920;-69
2022/01/19 11:47:29;;;;;;;;;;;11.40;54.20;;;;;;5081462;28;19916;-70
2022/01/19 11:49:57;;;;;;;;;;;11.40;54.20;;;;;;5082389;28;19920;-69
2022/01/19 11:52:26;;;;;;;;;;;11.30;54.20;;;;;;5082416;28;19944;-69
2022/01/19 11:55:07;;;;;;;;;;;11.30;54.40;;;;;;5082354;28;20398;-70
2022/01/19 11:57:33;;;;;;;;;;;11.20;54.50;;;;;;5082303;28;19951;-70
2022/01/19 12:00:25;;;;;;;;;;;11.20;54.60;;;;;;5080904;28;19920;-70
2022/01/19 12:02:52;;;;;;;;;;;11.20;54.70;;;;;;5082796;28;19920;-71
2022/01/19 12:05:20;;;;;;;;;;;11.30;54.60;;;;;;5082153;28;19917;-69
2022/01/19 12:07:53;;;;;;;;;;;11.30;54.60;;;;;;5081843;28;19916;-69
2022/01/19 12:10:22;;;;;;;;;;;11.30;54.60;;;;;;5082058;28;19916;-70
2022/01/19 12:13:09;;;;;;;;;;;11.30;54.60;;;;;;5081978;28;20220;-70
2022/01/19 12:15:59;;;;;;;;;;;11.30;54.60;;;;;;5080621;28;19904;-71
2022/01/19 12:18:36;;;;;;;;;;;11.30;54.60;;;;;;5081948;28;19912;-71
2022/01/19 12:21:02;;;;;;;;;;;11.30;54.60;;;;;;5080576;28;19954;-70
2022/01/19 12:23:29;;;;;;;;;;;11.30;54.40;;;;;;5081700;28;19912;-69
2022/01/19 12:25:56;;;;;;;;;;;11.30;54.40;;;;;;5080488;28;19913;-69
2022/01/19 12:28:40;;;;;;;;;;;11.30;54.50;;;;;;5080294;28;19912;-71
2022/01/19 12:31:24;;;;;;;;;;;11.30;54.60;;;;;;5081592;28;19912;-69
2022/01/19 12:34:06;;;;;;;;;;;11.20;54.50;;;;;;5081508;28;19961;-69
2022/01/19 12:36:47;;;;;;;;;;;11.30;54.70;;;;;;5081532;28;19908;-69
2022/01/19 12:39:25;;;;;;;;;;;11.30;54.60;;;;;;5081425;28;19919;-70
2022/01/19 12:41:59;;;;;;;;;;;11.20;54.50;;;;;;5081423;28;19904;-69
2022/01/19 12:44:38;;;;;;;;;;;11.30;54.70;;;;;;5080095;28;20196;-70
2022/01/19 12:47:22;;;;;;;;;;;11.30;54.70;;;;;;5081235;28;20025;-71
2022/01/19 12:49:50;;;;;;;;;;;11.30;54.60;;;;;;5081192;28;19904;-70
2022/01/19 12:52:16;;;;;;;;;;;11.40;54.50;;;;;;5081202;28;20180;-70
2022/01/19 12:54:41;;;;;;;;;;;11.40;54.50;;;;;;5079885;28;19913;-70
2022/01/19 12:57:13;;;;;;;;;;;11.40;54.40;;;;;;5080966;28;19913;-71
2022/01/19 12:59:39;;;;;;;;;;;11.40;54.40;;;;;;5080988;28;19912;-70
2022/01/19 13:02:04;;;;;;;;;;;11.30;54.50;;;;;;5080998;28;19967;-70
2022/01/19 13:04:31;;;;;;;;;;;11.40;54.60;;;;;;5080904;28;19904;-70
2022/01/19 13:07:13;;;;;;;;;;;11.30;54.60;;;;;;5080812;28;19909;-71
2022/01/19 13:09:59;;;;;;;;;;;11.40;54.60;;;;;;5080674;28;19956;-70
2022/01/19 13:12:37;;;;;;;;;;;11.40;54.60;;;;;;5080843;28;19958;-70
2022/01/19 13:15:03;;;;;;;;;;;11.40;54.50;;;;;;5080738;28;19935;-70
2022/01/19 13:17:41;;;;;;;;;;;11.40;54.50;;;;;;5080682;28;20448;-70
2022/01/19 13:20:08;;;;;;;;;;;11.40;54.60;;;;;;5080530;28;19923;-69
2022/01/19 13:22:42;;;;;;;;;;;11.40;54.60;;;;;;5080602;28;20121;-70
2022/01/19 13:25:13;;;;;;;;;;;11.40;54.40;;;;;;5080100;28;19951;-69
2022/01/19 13:27:43;;;;;;;;;;;11.50;54.40;;;;;;5079055;28;20284;-71
2022/01/19 13:30:13;;;;;;;;;;;11.40;54.20;;;;;;5080428;28;19919;-70
2022/01/19 13:32:39;;;;;;;;;;;11.50;54.30;;;;;;5079045;28;20098;-70
2022/01/19 13:35:06;;;;;;;;;;;11.50;54.20;;;;;;5080345;28;19913;-69
2022/01/19 13:37:37;;;;;;;;;;;11.50;54.30;;;;;;5080322;28;19947;-70
2022/01/19 13:40:02;;;;;;;;;;;11.50;54.20;;;;;;5079103;28;20203;-69
2022/01/19 13:42:37;;;;;;;;;;;11.40;54.30;;;;;;5080859;28;19920;-70
2022/01/19 13:45:09;;;;;;;;;;;11.40;54.40;;;;;;5080230;28;19904;-69
2022/01/19 13:47:57;;;;;;;;;;;11.40;54.40;;;;;;5080130;28;19909;-70
2022/01/19 13:50:23;;;;;;;;;;;11.40;54.60;;;;;;5078873;28;19913;-70
2022/01/19 13:52:49;;;;;;;;;;;11.40;54.50;;;;;;5078727;28;19988;-70
2022/01/19 13:55:22;;;;;;;;;;;11.40;54.70;;;;;;5080086;28;20234;-70
2022/01/19 13:57:48;;;;;;;;;;;11.40;54.60;;;;;;5078718;28;19912;-70
2022/01/19 14:00:16;;;;;;;;;;;11.40;54.60;;;;;;5080042;28;19920;-71
2022/01/19 14:02:57;;;;;;;;;;;11.50;54.40;;;;;;5080103;28;19913;-70
2022/01/19 14:05:39;;;;;;;;;;;11.60;54.30;;;;;;5079952;28;19913;-69
2022/01/19 14:08:05;;;;;;;;;;;11.60;54.30;;;;;;5080044;28;19924;-70
2022/01/19 14:10:44;;;;;;;;;;;11.60;54.20;;;;;;5079487;28;19913;-69
2022/01/19 14:13:23;;;;;;;;;;;11.60;54.20;;;;;;5079869;28;20105;-69
2022/01/19 14:15:49;;;;;;;;;;;11.60;54.90;;;;;;5079795;28;19912;-70
2022/01/19 14:18:14;;;;;;;;;;;11.60;54.30;;;;;;5079864;28;20121;-70
2022/01/19 14:20:40;;;;;;;;;;;11.60;54.50;;;;;;5079781;28;19946;-69
2022/01/19 14:23:11;;;;;;;;;;;11.60;54.60;;;;;;5079807;28;19954;-69
2022/01/19 14:25:37;;;;;;;;;;;11.60;54.60;;;;;;5079820;28;19913;-69
2022/01/19 14:28:11;;;;;;;;;;;11.50;54.60;;;;;;5079741;28;19923;-69
2022/01/19 14:30:37;;;;;;;;;;;11.50;54.80;;;;;;5079768;28;19967;-70
2022/01/19 14:33:14;;;;;;;;;;;11.50;54.70;;;;;;5079786;28;19913;-69
2022/01/19 14:35:40;;;;;;;;;;;11.60;54.70;;;;;;5079744;28;19945;-70
2022/01/19 14:38:24;;;;;;;;;;;11.60;54.40;;;;;;5079657;28;19913;-70
2022/01/19 14:40:50;;;;;;;;;;;11.70;54.40;;;;;;5079656;28;19968;-69
2022/01/19 14:43:18;;;;;;;;;;;11.70;54.40;;;;;;5079634;28;19913;-70
2022/01/19 14:45:53;;;;;;;;;;;11.70;54.30;;;;;;5078289;28;19912;-70
2022/01/19 14:48:19;;;;;;;;;;;11.60;54.40;;;;;;5079406;28;19916;-71
2022/01/19 14:50:45;;;;;;;;;;;11.60;54.70;;;;;;5079580;28;19927;-70
2022/01/19 14:53:12;;;;;;;;;;;11.60;54.80;;;;;;5079504;28;19912;-69
2022/01/19 14:55:39;;;;;;;;;;;11.50;54.80;;;;;;5078256;28;20162;-69
2022/01/19 14:58:06;;;;;;;;;;;11.50;54.90;;;;;;5079408;28;19927;-71
2022/01/19 15:00:33;;;;;;;;;;;11.50;55.00;;;;;;5079537;28;19912;-69
2022/01/19 15:03:02;;;;;;;;;;;11.50;55.00;;;;;;5078210;28;19913;-70
2022/01/19 15:05:29;;;;;;;;;;;11.50;55.00;;;;;;5079440;28;19948;-70
2022/01/19 15:07:55;;;;;;;;;;;11.50;55.20;;;;;;5079189;28;19991;-69
2022/01/19 15:10:22;;;;;;;;;;;11.40;55.10;;;;;;5079407;28;19916;-70
2022/01/19 15:12:53;;;;;;;;;;;11.40;55.10;;;;;;5079234;28;19935;-70
2022/01/19 15:15:21;;;;;;;;;;;11.50;55.00;;;;;;5079293;28;19913;-70
2022/01/19 15:17:47;;;;;;;;;;;11.50;54.90;;;;;;5079262;28;20140;-69
2022/01/19 15:20:13;;;;;;;;;;;11.50;55.00;;;;;;5079256;28;19905;-69
2022/01/19 15:22:38;;;;;;;;;;;11.40;55.00;;;;;;5081911;28;19958;-69
2022/01/19 15:25:04;;;;;;;;;;;11.40;55.10;;;;;;5082805;28;19988;-70
2022/01/19 15:27:30;;;;;;;;;;;11.40;55.20;;;;;;5081426;28;20041;-69
2022/01/19 15:29:55;;;;;;;;;;;11.40;55.20;;;;;;5082731;28;19912;-70
2022/01/19 15:32:21;;;;;;;;;;;11.40;55.20;;;;;;5082714;28;19912;-69
2022/01/19 15:34:46;;;;;;;;;;;11.50;55.10;;;;;;5082637;28;19913;-69
2022/01/19 15:37:12;;;;;;;;;;;11.40;55.10;;;;;;5082703;28;19934;-70
2022/01/19 15:39:40;;;;;;;;;;;11.40;55.10;;;;;;5083098;28;19919;-69
2022/01/19 15:42:06;;;;;;;;;;;11.50;55.10;;;;;;5082601;28;19904;-70
2022/01/19 15:44:32;;;;;;;;;;;11.40;55.00;;;;;;5082517;28;20171;-70
2022/01/19 15:46:57;;;;;;;;;;;11.40;55.20;;;;;;5082350;28;19919;-70
2022/01/19 15:49:23;;;;;;;;;;;11.40;55.20;;;;;;5082467;28;19962;-70